Overview Statistics Trail Chart Weather Telemetry Raw packets
 

This is the latest recevied weather packets stored in our database for station/object OK9CPU-9. If no packets are shown the sender has not sent any weather packets the latest 10 day(s).

<< 1 2 3 4 5 >>
Time Temp. Humidity Pressure Rain* Wind** Luminosity Snow
1788370974 24.44° C 32% 1018.8 hPa - - - -
1788369979 25.56° C 32% 1018.7 hPa - - - -
1788368984 26.67° C 32% 1018.6 hPa - - - -
1788367989 27.78° C 30% 1018.6 hPa - - - -
1788365999 29.44° C 28% 1018.6 hPa - - - -
1788365004 29.44° C 29% 1018.7 hPa - - - -
1788364009 30° C 29% 1018.8 hPa - - - -
1788338138 34.44° C 20% 1022 hPa - - - -
1788336148 35.56° C 17% 1022.1 hPa - - - -
1788335153 33.33° C 18% 1022 hPa - - - -
1788334158 32.22° C 18% 1022 hPa - - - -
1788333163 29.44° C 19% 1022.1 hPa - - - -
1788332168 26.11° C 21% 1022 hPa - - - -
1788323213 11.11° C 33% 1021.8 hPa - - - -
1788318237 11.67° C 33% 1021.8 hPa - - - -
1788317242 11.67° C 33% 1021.7 hPa - - - -
1788314257 12.22° C 33% 1021.8 hPa - - - -
1788313262 12.22° C 33% 1021.7 hPa - - - -
1788308287 12.22° C 34% 1021.9 hPa - - - -
1788301322 13.89° C 35% 1021.8 hPa - - - -
1788299332 14.44° C 35% 1021.7 hPa - - - -
1788292367 17.22° C 35% 1021.2 hPa - - - -
1788291372 17.78° C 35% 1021.2 hPa - - - -
1788282416 22.78° C 33% 1020 hPa - - - -
1788265501 32.22° C 27% 1020.2 hPa - - - -

* Rain since midnight (hover to see other rain measurements)
** Current wind speed in m/s (hover to see current wind gust speed)